< < Back
Terminal Aerodrome Forecast


Current Version              Previous Versions:   1  2  3  4  5  6  7  8  9  

Terminal Aerodrome Forecast

923
FTUS42 KTAE 261700
TAFVLD
TAF
KVLD 261724Z 2618/2718 22007KT P6SM VCTS BKN040CB
     FM270000 23004KT P6SM SCT030=

Latest METAR

917
SAUS70 KWBC 261700 RRK
MTRVLD
METAR KVLD 261653Z 00000KT 10SM FEW022 SCT046 BKN075 29/24 A3007 RMK AO2
RAB35E50 SLP188 P0002 T02890244


USA.gov is the U.S. government's official web portal to all federal, state and local government web resources and services.